createdAt,value
2022-08-28T00:00:39.819Z,101126.69
2022-08-28T00:03:08.451Z,101124.00
2022-08-28T00:05:36.521Z,101130.25
2022-08-28T00:08:06.557Z,101130.25
2022-08-28T00:10:34.701Z,101139.22
2022-08-28T00:13:02.997Z,101135.78
2022-08-28T00:15:35.296Z,101139.50
2022-08-28T00:18:04.019Z,101142.06
2022-08-28T00:20:33.517Z,101118.31
2022-08-28T00:23:02.689Z,101142.06
2022-08-28T00:25:32.955Z,101138.38
2022-08-28T00:28:05.457Z,101123.56
2022-08-28T00:30:39.801Z,101132.25
2022-08-28T00:33:11.842Z,101139.34
2022-08-28T00:35:41.252Z,101136.81
2022-08-28T00:38:10.056Z,101139.34
2022-08-28T00:40:41.333Z,101138.50
2022-08-28T00:43:10.988Z,101129.69
2022-08-28T00:45:40.259Z,101139.34
2022-08-28T00:48:09.239Z,101138.50
2022-08-28T00:50:51.523Z,101130.38
2022-08-28T00:53:20.821Z,101143.06
2022-08-28T00:55:53.316Z,101143.06
2022-08-28T00:58:21.322Z,101139.09
2022-08-28T01:00:50.027Z,101137.66
2022-08-28T01:03:18.108Z,101137.78
2022-08-28T01:05:49.258Z,101140.50
2022-08-28T01:08:18.553Z,101145.91
2022-08-28T01:10:53.417Z,101157.41
2022-08-28T01:13:25.071Z,101145.91
2022-08-28T01:15:53.759Z,101147.75
2022-08-28T01:18:22.918Z,101140.78
2022-08-28T01:21:01.077Z,101145.91
2022-08-28T01:23:51.233Z,101150.31
2022-08-28T01:26:19.930Z,101150.59
2022-08-28T01:28:48.020Z,101147.91
2022-08-28T01:31:17.486Z,101156.00
2022-08-28T01:33:47.496Z,101153.31
2022-08-28T01:36:17.789Z,101151.59
2022-08-28T01:38:50.403Z,101151.59
2022-08-28T01:41:18.369Z,101155.16
2022-08-28T01:43:46.410Z,101148.88
2022-08-28T01:46:14.546Z,101145.19
2022-08-28T01:48:46.281Z,101134.38
2022-08-28T01:51:14.683Z,101133.53
2022-08-28T01:53:45.062Z,101134.38
2022-08-28T01:56:17.771Z,101133.41
2022-08-28T01:58:46.000Z,101127.25
2022-08-28T02:01:16.106Z,101140.78
2022-08-28T02:03:44.247Z,101139.09
2022-08-28T02:06:15.092Z,101130.97
2022-08-28T02:08:43.578Z,101130.97
2022-08-28T02:11:12.853Z,101141.91
2022-08-28T02:13:42.488Z,101132.13
2022-08-28T02:16:11.906Z,101137.38
2022-08-28T02:18:40.224Z,101134.66
2022-08-28T02:21:09.566Z,101131.97
2022-08-28T02:23:39.617Z,101133.69
2022-08-28T02:26:08.241Z,101127.41
2022-08-28T02:28:36.785Z,101133.81
2022-08-28T02:31:09.412Z,101130.25
2022-08-28T02:33:38.366Z,101134.81
2022-08-28T02:36:08.192Z,101132.94
2022-08-28T02:38:36.695Z,101113.19
2022-08-28T02:41:05.097Z,101130.25
2022-08-28T02:43:33.365Z,101112.19
2022-08-28T02:46:01.365Z,101139.22
2022-08-28T02:48:32.297Z,101133.09
2022-08-28T02:51:02.840Z,101132.13
2022-08-28T02:53:31.066Z,101128.84
2022-08-28T02:56:00.575Z,101134.81
2022-08-28T02:58:28.612Z,101127.69
2022-08-28T03:00:56.953Z,101125.97
2022-08-28T03:03:27.784Z,101121.31
2022-08-28T03:05:57.090Z,101117.59
2022-08-28T03:08:27.259Z,101110.63
2022-08-28T03:10:55.568Z,101114.19
2022-08-28T03:13:27.070Z,101088.72
2022-08-28T03:15:56.306Z,101114.34
2022-08-28T03:18:25.651Z,101110.63
2022-08-28T03:20:54.139Z,101113.47
2022-08-28T03:23:30.294Z,101116.03
2022-08-28T03:26:01.821Z,101108.06
2022-08-28T03:28:33.398Z,101112.63
2022-08-28T03:31:02.528Z,101099.09
2022-08-28T03:33:30.676Z,101110.78
2022-08-28T03:35:59.485Z,101104.50
2022-08-28T03:38:29.358Z,101114.34
2022-08-28T03:40:57.583Z,101113.59
2022-08-28T03:43:27.407Z,101114.63
2022-08-28T03:45:58.215Z,101116.31
2022-08-28T03:48:26.601Z,101119.00
2022-08-28T03:50:54.924Z,101111.91
2022-08-28T03:53:24.694Z,101121.72
2022-08-28T03:55:54.448Z,101127.13
2022-08-28T03:58:23.193Z,101116.31
2022-08-28T04:00:51.464Z,101120.88
2022-08-28T04:03:19.931Z,101128.13
2022-08-28T04:05:48.832Z,101134.41
2022-08-28T04:08:18.720Z,101131.69
2022-08-28T04:10:48.079Z,101138.94
2022-08-28T04:13:20.425Z,101152.47
2022-08-28T04:15:57.554Z,101147.91
2022-08-28T04:18:26.084Z,101154.47
2022-08-28T04:21:06.110Z,101150.63
2022-08-28T04:23:34.133Z,101155.44
2022-08-28T04:26:02.161Z,101146.47
2022-08-28T04:28:32.651Z,101142.78
2022-08-28T04:31:00.674Z,101140.22
2022-08-28T04:33:29.620Z,101142.91
2022-08-28T04:35:58.375Z,101109.38
2022-08-28T04:38:26.358Z,101145.50
2022-08-28T04:40:54.380Z,101140.22
2022-08-28T04:43:22.384Z,101140.22
2022-08-28T04:45:51.737Z,101153.59
2022-08-28T04:48:19.873Z,101150.19
2022-08-28T04:50:49.625Z,101151.88
2022-08-28T04:53:20.007Z,101146.47
2022-08-28T04:55:54.382Z,101142.91
2022-08-28T04:58:24.441Z,101145.63
2022-08-28T05:00:55.500Z,101144.78
2022-08-28T05:03:24.570Z,101145.63
2022-08-28T05:05:55.475Z,101139.38
2022-08-28T05:08:27.801Z,101144.78
2022-08-28T05:10:56.397Z,101133.25
2022-08-28T05:13:24.714Z,101146.63
2022-08-28T05:15:55.326Z,101143.06
2022-08-28T05:18:25.578Z,101152.03
2022-08-28T05:20:53.795Z,101155.59
2022-08-28T05:23:22.196Z,101154.75
2022-08-28T05:25:53.769Z,101153.72
2022-08-28T05:28:23.743Z,101147.50
2022-08-28T05:30:54.073Z,101148.47
2022-08-28T05:33:22.168Z,101148.47
2022-08-28T05:35:50.123Z,101150.19
2022-08-28T05:38:18.355Z,101157.56
2022-08-28T05:40:47.909Z,101162.84
2022-08-28T05:43:17.938Z,101155.72
2022-08-28T05:45:45.968Z,101147.63
2022-08-28T05:48:16.246Z,101153.88
2022-08-28T05:50:47.320Z,101160.28
2022-08-28T05:53:17.585Z,101154.88
2022-08-28T05:55:51.660Z,101156.75
2022-08-28T05:58:33.563Z,101162.16
2022-08-28T06:01:10.487Z,101169.25
2022-08-28T06:03:40.935Z,101163.13
2022-08-28T06:06:09.963Z,101164.09
2022-08-28T06:08:38.433Z,101162.25
2022-08-28T06:11:24.565Z,101170.38
2022-08-28T06:13:52.617Z,101173.94
2022-08-28T06:16:20.655Z,101169.38
2022-08-28T06:18:51.492Z,101171.22
2022-08-28T06:21:19.534Z,101167.66
2022-08-28T06:23:47.552Z,101171.22
2022-08-28T06:26:15.518Z,101175.78
2022-08-28T06:28:43.480Z,101171.22
2022-08-28T06:31:23.508Z,101175.78
2022-08-28T06:33:54.964Z,101179.34
2022-08-28T06:36:23.172Z,101169.78
2022-08-28T06:38:51.549Z,101178.47
2022-08-28T06:41:19.661Z,101173.94
2022-08-28T06:43:47.650Z,101145.75
2022-08-28T06:46:15.774Z,101183.88
2022-08-28T06:48:43.797Z,101183.88
2022-08-28T06:51:14.551Z,101175.78
2022-08-28T06:53:45.125Z,101187.44
2022-08-28T06:56:26.444Z,101180.19
2022-08-28T06:58:57.250Z,101179.63
2022-08-28T07:01:29.557Z,101160.56
2022-08-28T07:04:00.319Z,101181.19
2022-08-28T07:06:32.922Z,101183.88
2022-08-28T07:09:01.058Z,101182.31
2022-08-28T07:11:31.408Z,101185.72
2022-08-28T07:14:00.583Z,101195.13
2022-08-28T07:16:31.239Z,101199.41
2022-08-28T07:18:59.550Z,101211.91
2022-08-28T07:21:28.949Z,101211.91
2022-08-28T07:23:56.912Z,101212.91
2022-08-28T07:26:27.878Z,101215.47
2022-08-28T07:29:10.720Z,101216.31
2022-08-28T07:31:41.588Z,101220.88
2022-08-28T07:34:10.775Z,101213.78
2022-08-28T07:36:40.860Z,101210.06
2022-08-28T07:39:10.176Z,101213.63
2022-08-28T07:41:42.353Z,101206.50
2022-08-28T07:44:30.392Z,101212.75
2022-08-28T07:47:00.901Z,101214.59
2022-08-28T07:49:28.902Z,101222.72
2022-08-28T07:51:58.270Z,101219.19
2022-08-28T07:54:26.317Z,101221.00
2022-08-28T07:56:54.724Z,101222.84
2022-08-28T07:59:22.786Z,101218.31
2022-08-28T08:01:52.451Z,101230.09
2022-08-28T08:04:22.124Z,101224.69
2022-08-28T08:06:54.509Z,101217.19
2022-08-28T08:09:25.177Z,101240.06
2022-08-28T08:11:53.737Z,101237.50
2022-08-28T08:14:21.722Z,101236.53
2022-08-28T08:16:49.809Z,101241.94
2022-08-28T08:19:19.083Z,101218.00
2022-08-28T08:21:53.316Z,101248.31
2022-08-28T08:24:26.783Z,101238.38
2022-08-28T08:26:59.188Z,101240.22
2022-08-28T08:29:29.654Z,101253.00
2022-08-28T08:31:58.850Z,101265.38
2022-08-28T08:34:27.100Z,101269.06
2022-08-28T08:36:55.275Z,101262.81
2022-08-28T08:39:24.806Z,101266.38
2022-08-28T08:41:57.510Z,101259.13
2022-08-28T08:44:34.014Z,101253.44
2022-08-28T08:47:14.091Z,101259.28
2022-08-28T08:49:48.690Z,101247.88
2022-08-28T08:52:29.241Z,101254.69
2022-08-28T08:55:08.938Z,101244.91
2022-08-28T08:57:39.763Z,101252.69
2022-08-28T09:00:15.000Z,101253.13
2022-08-28T09:02:48.510Z,101232.63
2022-08-28T09:05:21.417Z,101257.72
2022-08-28T09:07:57.025Z,101253.13
2022-08-28T09:10:36.467Z,101254.84
2022-08-28T09:13:12.304Z,101256.84
2022-08-28T09:15:47.545Z,101256.00
2022-08-28T09:18:23.564Z,101256.00
2022-08-28T09:20:52.881Z,101253.28
2022-08-28T09:23:23.149Z,101250.59
2022-08-28T09:25:59.606Z,101249.72
2022-08-28T09:28:34.282Z,101250.75
2022-08-28T09:31:05.884Z,101255.00
2022-08-28T09:33:44.935Z,101247.28
2022-08-28T09:36:39.965Z,101249.88
2022-08-28T09:39:14.792Z,101251.72
2022-08-28T09:42:11.586Z,101259.81
2022-08-28T09:44:56.332Z,101252.69
2022-08-28T09:47:46.246Z,101256.41
2022-08-28T09:50:29.174Z,101261.66
2022-08-28T09:53:00.971Z,101250.84
2022-08-28T09:55:36.988Z,101260.81
2022-08-28T09:58:07.301Z,101260.09
2022-08-28T10:00:38.279Z,101262.78
2022-08-28T10:03:15.645Z,101268.09
2022-08-28T10:05:52.161Z,101273.59
2022-08-28T10:08:34.009Z,101291.53
2022-08-28T10:11:13.630Z,101286.13
2022-08-28T10:13:53.508Z,101291.66
2022-08-28T10:16:30.533Z,101294.34
2022-08-28T10:19:06.090Z,101293.50
2022-08-28T10:21:41.529Z,101285.53
2022-08-28T10:24:29.110Z,101286.25
2022-08-28T10:27:08.512Z,101299.06
2022-08-28T10:29:51.701Z,101302.63
2022-08-28T10:32:43.683Z,101298.19
2022-08-28T10:35:17.260Z,101297.47
2022-08-28T10:37:58.336Z,101300.91
2022-08-28T10:40:30.501Z,101296.50
2022-08-28T10:43:04.745Z,101301.75
2022-08-28T10:45:36.221Z,101299.22
2022-08-28T10:48:10.380Z,101294.63
2022-08-28T10:50:43.813Z,101296.34
2022-08-28T10:53:18.111Z,101286.69
2022-08-28T10:55:55.101Z,101301.91
2022-08-28T10:58:26.301Z,101304.72
2022-08-28T11:01:01.274Z,101312.84
2022-08-28T11:03:35.249Z,101323.06
2022-08-28T11:06:11.379Z,101314.66
2022-08-28T11:08:40.770Z,101327.34
2022-08-28T11:11:15.023Z,101332.59
2022-08-28T11:13:48.421Z,101332.75
2022-08-28T11:16:24.149Z,101352.50
2022-08-28T11:19:22.710Z,101353.50
2022-08-28T11:21:54.017Z,101359.88
2022-08-28T11:24:43.817Z,101371.56
2022-08-28T11:27:21.439Z,101377.94
2022-08-28T11:30:29.783Z,101378.81
2022-08-28T11:33:38.009Z,101395.28
2022-08-28T11:36:11.808Z,101389.03
2022-08-28T11:39:19.902Z,101393.59
2022-08-28T11:42:27.788Z,101398.13
2022-08-28T11:44:55.736Z,101399.22
2022-08-28T11:47:43.359Z,101398.13
2022-08-28T11:50:26.052Z,101403.53
2022-08-28T11:53:19.730Z,101401.81
2022-08-28T11:56:00.880Z,101405.47
2022-08-28T11:58:36.724Z,101406.38
2022-08-28T12:01:07.981Z,101412.59
2022-08-28T12:03:40.220Z,101415.31
2022-08-28T12:06:10.603Z,101408.44
2022-08-28T12:09:04.827Z,101413.59
2022-08-28T12:12:00.864Z,101406.59
2022-08-28T12:15:02.134Z,101402.91
2022-08-28T12:17:44.317Z,101395.91
2022-08-28T12:20:19.962Z,101409.16
2022-08-28T12:22:53.035Z,101408.44
2022-08-28T12:25:30.778Z,101410.88
2022-08-28T12:28:04.646Z,101407.44
2022-08-28T12:30:37.440Z,101413.69
2022-08-28T12:33:13.707Z,101411.00
2022-08-28T12:35:43.886Z,101384.63
2022-08-28T12:38:20.072Z,101410.03
2022-08-28T12:40:53.651Z,101415.53
2022-08-28T12:43:31.017Z,101412.00
2022-08-28T12:46:02.265Z,101417.41
2022-08-28T12:48:32.757Z,101414.72
2022-08-28T12:51:04.729Z,101413.84
2022-08-28T12:53:43.067Z,101416.56
2022-08-28T12:56:13.110Z,101411.16
2022-08-28T12:58:42.685Z,101397.75
2022-08-28T13:01:14.711Z,101381.44
2022-08-28T13:03:48.742Z,101375.88
2022-08-28T13:06:24.961Z,101368.78
2022-08-28T13:09:00.493Z,101359.81
2022-08-28T13:11:33.200Z,101337.16
2022-08-28T13:14:01.495Z,101319.56
2022-08-28T13:16:38.735Z,101325.56
2022-08-28T13:19:26.004Z,101305.91
2022-08-28T13:22:00.345Z,101299.94
2022-08-28T13:24:42.355Z,101310.59
2022-08-28T13:27:20.029Z,101333.22
2022-08-28T13:30:08.689Z,101323.53
2022-08-28T13:32:39.159Z,101333.50
2022-08-28T13:35:27.569Z,101345.16
2022-08-28T13:37:57.242Z,101345.41
2022-08-28T13:43:19.357Z,101343.09
2022-08-28T13:45:49.257Z,101355.34
2022-08-28T13:48:18.786Z,101348.22
2022-08-28T13:50:50.912Z,101364.44
2022-08-28T13:53:21.588Z,101360.03
2022-08-28T13:55:51.843Z,101358.31
2022-08-28T13:58:19.809Z,101366.56
2022-08-28T14:00:50.927Z,101360.41
2022-08-28T14:03:38.165Z,101362.16
2022-08-28T14:06:09.248Z,101366.69
2022-08-28T14:08:37.260Z,101372.22
2022-08-28T14:11:07.258Z,101360.56
2022-08-28T14:13:35.960Z,101360.56
2022-08-28T14:16:06.025Z,101354.19
2022-08-28T14:18:34.687Z,101331.50
2022-08-28T14:21:06.301Z,101364.25
2022-08-28T14:23:34.670Z,101358.13
2022-08-28T14:26:07.007Z,101373.34
2022-08-28T14:28:35.008Z,101366.38
2022-08-28T14:31:12.325Z,101369.94
2022-08-28T14:33:45.386Z,101354.88
2022-08-28T14:36:16.719Z,101373.63
2022-08-28T14:38:44.780Z,101368.38
2022-08-28T14:41:14.957Z,101358.41
2022-08-28T14:43:43.131Z,101352.53
2022-08-28T14:46:16.459Z,101368.22
2022-08-28T14:48:44.913Z,101373.75
2022-08-28T14:51:12.953Z,101376.47
2022-08-28T14:53:41.202Z,101384.56
2022-08-28T14:56:10.204Z,101383.56
2022-08-28T14:58:39.599Z,101390.94
2022-08-28T15:01:08.165Z,101393.63
2022-08-28T15:03:36.326Z,101403.59
2022-08-28T15:06:07.362Z,101420.50
2022-08-28T15:08:37.160Z,101411.56
2022-08-28T15:11:07.010Z,101410.72
2022-08-28T15:13:35.464Z,101405.31
2022-08-28T15:16:06.626Z,101400.78
2022-08-28T15:18:45.766Z,101400.03
2022-08-28T15:21:18.007Z,101406.16
2022-08-28T15:23:46.493Z,101409.84
2022-08-28T15:26:15.539Z,101417.09
2022-08-28T15:28:43.758Z,101423.19
2022-08-28T15:31:13.768Z,101417.69
2022-08-28T15:33:45.217Z,101430.31
2022-08-28T15:36:13.537Z,101423.09
2022-08-28T15:38:58.933Z,101416.69
2022-08-28T15:41:27.161Z,101423.81
2022-08-28T15:43:56.609Z,101423.66
2022-08-28T15:46:25.934Z,101424.41
2022-08-28T15:48:54.467Z,101428.81
2022-08-28T15:51:25.900Z,101426.97
2022-08-28T15:53:54.768Z,101423.28
2022-08-28T15:56:22.875Z,101431.25
2022-08-28T15:58:51.961Z,101436.38
2022-08-28T16:01:20.740Z,101451.63
2022-08-28T16:03:50.197Z,101446.22
2022-08-28T16:06:21.171Z,101445.22
2022-08-28T16:08:50.622Z,101450.59
2022-08-28T16:11:20.689Z,101455.91
2022-08-28T16:13:48.666Z,101448.63
2022-08-28T16:16:16.882Z,101449.38
2022-08-28T16:18:45.119Z,101453.03
2022-08-28T16:21:14.748Z,101444.81
2022-08-28T16:23:43.110Z,101446.66
2022-08-28T16:26:12.257Z,101454.47
2022-08-28T16:28:40.217Z,101449.09
2022-08-28T16:31:18.874Z,101458.91
2022-08-28T16:33:47.449Z,101456.34
2022-08-28T16:36:17.430Z,101454.47
2022-08-28T16:38:47.225Z,101458.91
2022-08-28T16:41:17.440Z,101458.75
2022-08-28T16:43:46.126Z,101468.75
2022-08-28T16:46:18.690Z,101464.16
2022-08-28T16:48:48.216Z,101462.31
2022-08-28T16:51:19.377Z,101472.16
2022-08-28T16:53:47.559Z,101474.84
2022-08-28T16:56:17.830Z,101444.50
2022-08-28T16:58:46.856Z,101471.22
2022-08-28T17:01:15.783Z,101476.63
2022-08-28T17:03:44.179Z,101468.38
2022-08-28T17:06:15.217Z,101470.09
2022-08-28T17:08:47.038Z,101461.97
2022-08-28T17:11:15.406Z,101462.97
2022-08-28T17:13:44.021Z,101466.53
2022-08-28T17:16:13.491Z,101465.50
2022-08-28T17:18:47.969Z,101460.97
2022-08-28T17:21:38.127Z,101473.63
2022-08-28T17:24:08.329Z,101472.66
2022-08-28T17:26:36.356Z,101478.78
2022-08-28T17:29:04.902Z,101483.31
2022-08-28T17:31:33.434Z,101483.44
2022-08-28T17:34:01.647Z,101486.16
2022-08-28T17:36:33.435Z,101488.72
2022-08-28T17:39:03.351Z,101502.38
2022-08-28T17:41:33.454Z,101504.22
2022-08-28T17:44:02.066Z,101514.16
2022-08-28T17:46:34.095Z,101505.06
2022-08-28T17:49:07.122Z,101469.31
2022-08-28T17:51:43.830Z,101510.47
2022-08-28T17:54:13.957Z,101511.44
2022-08-28T17:56:46.137Z,101520.31
2022-08-28T17:59:16.561Z,101516.84
2022-08-28T18:01:46.890Z,101515.88
2022-08-28T18:04:21.649Z,101512.19
2022-08-28T18:06:54.864Z,101518.56
2022-08-28T18:09:24.817Z,101516.59
2022-08-28T18:11:54.697Z,101498.44
2022-08-28T18:14:24.347Z,101521.03
2022-08-28T18:16:53.476Z,101513.88
2022-08-28T18:19:24.153Z,101518.31
2022-08-28T18:21:52.242Z,101514.59
2022-08-28T18:24:21.995Z,101513.78
2022-08-28T18:26:51.633Z,101505.53
2022-08-28T18:29:21.917Z,101517.06
2022-08-28T18:31:50.447Z,101507.97
2022-08-28T18:34:18.599Z,101507.09
2022-08-28T18:36:49.440Z,101508.84
2022-08-28T18:39:29.252Z,101516.06
2022-08-28T18:42:00.012Z,101506.97
2022-08-28T18:44:30.008Z,101509.53
2022-08-28T18:46:58.667Z,101515.66
2022-08-28T18:49:28.455Z,101508.56
2022-08-28T18:51:57.950Z,101505.72
2022-08-28T18:54:28.408Z,101505.72
2022-08-28T18:57:01.347Z,101514.69
2022-08-28T18:59:34.470Z,101511.84
2022-08-28T19:02:05.096Z,101505.56
2022-08-28T19:04:34.781Z,101504.59
2022-08-28T19:07:03.277Z,101504.47
2022-08-28T19:09:34.886Z,101501.75
2022-08-28T19:12:06.038Z,101472.66
2022-08-28T19:14:37.837Z,101508.03
2022-08-28T19:17:07.302Z,101502.75
2022-08-28T19:19:35.877Z,101503.47
2022-08-28T19:22:07.344Z,101508.16
2022-08-28T19:24:35.947Z,101508.16
2022-08-28T19:27:07.088Z,101509.03
2022-08-28T19:29:38.020Z,101516.28
2022-08-28T19:32:10.433Z,101510.00
2022-08-28T19:34:39.645Z,101508.28
2022-08-28T19:37:07.898Z,101509.16
2022-08-28T19:39:36.183Z,101517.25
2022-08-28T19:42:06.409Z,101524.50
2022-08-28T19:44:34.566Z,101524.50
2022-08-28T19:47:04.400Z,101526.22
2022-08-28T19:49:32.642Z,101519.09
2022-08-28T19:52:02.198Z,101514.53
2022-08-28T19:54:31.037Z,101510.88
2022-08-28T19:56:59.480Z,101521.69
2022-08-28T19:59:27.477Z,101518.81
2022-08-28T20:01:55.539Z,101527.94
2022-08-28T20:04:25.247Z,101525.97
2022-08-28T20:06:54.081Z,101517.97
2022-08-28T20:09:22.102Z,101517.97
2022-08-28T20:11:50.517Z,101513.44
2022-08-28T20:14:20.105Z,101511.59
2022-08-28T20:16:51.012Z,101512.31
2022-08-28T20:19:19.869Z,101506.03
2022-08-28T20:21:50.419Z,101507.16
2022-08-28T20:24:21.905Z,101518.44
2022-08-28T20:26:50.789Z,101509.59
2022-08-28T20:29:19.250Z,101512.31
2022-08-28T20:31:49.001Z,101514.88
2022-08-28T20:34:19.362Z,101523.81
2022-08-28T20:36:47.528Z,101522.25
2022-08-28T20:39:17.399Z,101522.00
2022-08-28T20:41:46.546Z,101525.81
2022-08-28T20:44:17.447Z,101517.41
2022-08-28T20:46:51.208Z,101526.53
2022-08-28T20:49:22.486Z,101527.28
2022-08-28T20:51:56.421Z,101523.13
2022-08-28T20:54:29.465Z,101521.00
2022-08-28T20:56:59.550Z,101528.25
2022-08-28T20:59:28.912Z,101521.13
2022-08-28T21:02:05.348Z,101520.28
2022-08-28T21:04:36.167Z,101518.44
2022-08-28T21:07:04.858Z,101512.31
2022-08-28T21:10:04.251Z,101509.59
2022-08-28T21:12:22.532Z,101512.44
2022-08-28T21:14:53.417Z,101512.44
2022-08-28T21:17:29.433Z,101515.25
2022-08-28T21:19:58.448Z,101514.28
2022-08-28T21:22:26.432Z,101515.25
2022-08-28T21:24:55.823Z,101510.59
2022-08-28T21:27:24.040Z,101510.59
2022-08-28T21:29:52.025Z,101512.44
2022-08-28T21:32:20.292Z,101516.28
2022-08-28T21:34:48.245Z,101515.25
2022-08-28T21:37:16.740Z,101515.25
2022-08-28T21:39:44.710Z,101513.44
2022-08-28T21:42:14.336Z,101509.75
2022-08-28T21:44:51.394Z,101506.31
2022-08-28T21:47:21.430Z,101516.13
2022-08-28T21:49:50.489Z,101509.75
2022-08-28T21:52:19.078Z,101513.16
2022-08-28T21:54:47.360Z,101510.59
2022-08-28T21:57:17.750Z,101503.22
2022-08-28T21:59:45.898Z,101504.19
2022-08-28T22:02:13.968Z,101506.91
2022-08-28T22:04:42.188Z,101500.50
2022-08-28T22:07:12.030Z,101501.38
2022-08-28T22:09:40.144Z,101526.53
2022-08-28T22:12:09.091Z,101494.97
2022-08-28T22:14:39.029Z,101529.13
2022-08-28T22:17:11.507Z,101456.41
2022-08-28T22:19:40.057Z,101474.19
2022-08-28T22:22:25.862Z,101533.97
2022-08-28T22:24:54.010Z,101522.00
2022-08-28T22:27:22.417Z,101518.84
2022-08-28T22:29:51.825Z,101521.75
2022-08-28T22:32:25.498Z,101520.56
2022-08-28T22:34:54.637Z,101521.84
2022-08-28T22:37:22.998Z,101505.13
2022-08-28T22:39:51.068Z,101514.50
2022-08-28T22:42:19.576Z,101513.06
2022-08-28T22:44:47.572Z,101514.28
2022-08-28T22:47:18.955Z,101514.28
2022-08-28T22:49:47.248Z,101518.81
2022-08-28T22:52:15.459Z,101512.09
2022-08-28T22:54:43.560Z,101493.53
2022-08-28T22:57:11.768Z,101526.34
2022-08-28T22:59:39.731Z,101522.78
2022-08-28T23:02:07.833Z,101520.19
2022-08-28T23:04:37.311Z,101516.66
2022-08-28T23:07:05.664Z,101501.63
2022-08-28T23:09:33.913Z,101514.22
2022-08-28T23:12:04.785Z,101516.06
2022-08-28T23:14:32.852Z,101518.91
2022-08-28T23:17:01.118Z,101525.28
2022-08-28T23:19:30.363Z,101520.84
2022-08-28T23:21:59.857Z,101518.28
2022-08-28T23:24:27.890Z,101514.88
2022-08-28T23:26:55.826Z,101508.00
2022-08-28T23:29:23.822Z,101516.81
2022-08-28T23:31:51.779Z,101504.31
2022-08-28T23:34:19.949Z,101515.22
2022-08-28T23:36:48.120Z,101509.09
2022-08-28T23:39:17.601Z,101504.56
2022-08-28T23:41:45.668Z,101504.81
2022-08-28T23:44:14.512Z,101507.66
2022-08-28T23:46:42.586Z,101508.78
2022-08-28T23:49:11.379Z,101506.19
2022-08-28T23:51:39.447Z,101506.31
2022-08-28T23:54:08.681Z,101509.13
2022-08-28T23:56:38.577Z,101507.44
2022-08-28T23:59:07.530Z,101481.09
